Morgan Ray — WDF6085 — position and weather

sailwx.info

Track history (hours):
 
Tides and Currents Weather Stations Pressure Air Temp Water Temp Dewpoint Dewpoint Depression Visibility Wind Speed Wind Dir Waves Ship Positions

Morgan Ray

Owner: Daigle Towing Service LLC., Belle Chasse, LA. More information available from US FCC via Universal Licensing System and Coast Guard Vessel Documentation Center.

Last reported at 2016-Aug-21 05:24 UTC. Time now 2016-Aug-25 13:15 UTC.
Position N 29°34' W 090°33'.

Length 20 m; draft 2 m.

Type: Tug. MMSI: 367470470.

Date/timePositionNaut miles runAvg speedWind from/ knotsBaromVisibWave heightAir tempDewpointWater temp
2016-Aug-21 05:24N 29°34' W 090°33'5 6.5
2016-Aug-21 04:33N 29°36' W 090°39'4 4.4
2016-Aug-21 03:33N 29°34' W 090°44'70 5.8
2016-Aug-20 15:29N 29°49' W 092°03'6 6.7
2016-Aug-20 14:33N 29°47' W 092°10'7 7.0
2016-Aug-20 13:33N 29°49' W 092°17'6 6.4
2016-Aug-20 12:33N 29°53' W 092°23'33 6.3
2016-Aug-20 07:18N 29°56' W 093°01'4 5.3
2016-Aug-20 06:34N 29°56' W 093°06'5 5.4
2016-Aug-20 05:33N 29°58' W 093°12'5 5.5
2016-Aug-20 04:33N 30°03' W 093°16'4 4.0
2016-Aug-20 03:33N 30°06' W 093°18'4 3.8
2016-Aug-20 02:33N 30°09' W 093°20'6 5.6
2016-Aug-20 01:34N 30°13' W 093°15'1 1.0
2016-Aug-20 00:33N 30°14' W 093°15'2 1.8
2016-Aug-19 23:33N 30°12' W 093°16'4 3.9
2016-Aug-19 22:33N 30°10' W 093°19'4 3.6
2016-Aug-19 21:33N 30°06' W 093°20'2 2.2
2016-Aug-19 20:33N 30°05' W 093°18'1 1.3
2016-Aug-19 19:33N 30°04' W 093°16'0 0.0
2016-Aug-19 18:34N 30°04' W 093°16'0 0.0
2016-Aug-19 17:33N 30°04' W 093°16'0 0.0
2016-Aug-19 16:33N 30°04' W 093°16'0 0.0
2016-Aug-19 15:33N 30°04' W 093°16'3 2.6
2016-Aug-19 14:33N 30°06' W 093°18'2 1.6
2016-Aug-19 13:33N 30°05' W 093°17'1 1.0
2016-Aug-19 12:33N 30°04' W 093°16'0 0.0
2016-Aug-19 11:33N 30°04' W 093°16'0 0.0
2016-Aug-19 10:33N 30°04' W 093°16'0 0.0
2016-Aug-19 09:33N 30°04' W 093°16'0 0.0
2016-Aug-19 08:33N 30°04' W 093°16'0 0.0
2016-Aug-19 07:33N 30°04' W 093°16'0 0.0
2016-Aug-19 06:33N 30°04' W 093°16'0 0.0
2016-Aug-19 05:33N 30°04' W 093°16'0 0.0
2016-Aug-19 04:33N 30°04' W 093°16'0 0.0
2016-Aug-19 03:33N 30°04' W 093°16'0 0.0
2016-Aug-19 02:33N 30°04' W 093°16'0 0.0
2016-Aug-19 01:33N 30°04' W 093°16'0 0.0
2016-Aug-19 00:33N 30°04' W 093°16'0 0.0
2016-Aug-18 23:33N 30°04' W 093°16'0 0.1
2016-Aug-18 22:34N 30°04' W 093°16'3 3.4
2016-Aug-18 21:33N 30°02' W 093°14'4 3.6
2016-Aug-18 20:27N 29°58' W 093°12'3 3.7
2016-Aug-18 19:33N 29°56' W 093°09'5 4.6
2016-Aug-18 18:33N 29°56' W 093°03'5 4.1
2016-Aug-18 17:23N 29°56' W 092°58'31 3.5
2016-Aug-18 08:31N 29°52' W 092°22'2 2.4
2016-Aug-18 07:34N 29°51' W 092°20'3 2.6
2016-Aug-18 06:33N 29°50' W 092°18'3 2.6
2016-Aug-18 05:34N 29°48' W 092°15'3 2.5
2016-Aug-18 04:33N 29°47' W 092°12'2 1.7
2016-Aug-18 03:33N 29°47' W 092°11'3 3.1
2016-Aug-18 02:33N 29°47' W 092°07'  
2016-Aug-11 05:33N 29°56' W 091°50'  
Track history (hours):
 
Tides and Currents Weather Stations Pressure Air Temp Water Temp Dewpoint Dewpoint Depression Visibility Wind Speed Wind Dir Waves Ship Positions

Morgan Ray

Owner: Daigle Towing Service LLC., Belle Chasse, LA. More information available from US FCC via Universal Licensing System and Coast Guard Vessel Documentation Center.

Last reported at 2016-Aug-21 05:24 UTC. Time now 2016-Aug-25 13:15 UTC.
Position N 29°34' W 090°33'.

Length 20 m; draft 2 m.

Type: Tug. MMSI: 367470470.

Date/timePositionNaut miles runAvg speedWind from/ knotsBaromVisibWave heightAir tempDewpointWater temp
2016-Aug-21 05:24N 29°34' W 090°33'5 6.5
2016-Aug-21 04:33N 29°36' W 090°39'4 4.4
2016-Aug-21 03:33N 29°34' W 090°44'70 5.8
2016-Aug-20 15:29N 29°49' W 092°03'6 6.7
2016-Aug-20 14:33N 29°47' W 092°10'7 7.0
2016-Aug-20 13:33N 29°49' W 092°17'6 6.4
2016-Aug-20 12:33N 29°53' W 092°23'33 6.3
2016-Aug-20 07:18N 29°56' W 093°01'4 5.3
2016-Aug-20 06:34N 29°56' W 093°06'5 5.4
2016-Aug-20 05:33N 29°58' W 093°12'5 5.5
2016-Aug-20 04:33N 30°03' W 093°16'4 4.0
2016-Aug-20 03:33N 30°06' W 093°18'4 3.8
2016-Aug-20 02:33N 30°09' W 093°20'6 5.6
2016-Aug-20 01:34N 30°13' W 093°15'1 1.0
2016-Aug-20 00:33N 30°14' W 093°15'2 1.8
2016-Aug-19 23:33N 30°12' W 093°16'4 3.9
2016-Aug-19 22:33N 30°10' W 093°19'4 3.6
2016-Aug-19 21:33N 30°06' W 093°20'2 2.2
2016-Aug-19 20:33N 30°05' W 093°18'1 1.3
2016-Aug-19 19:33N 30°04' W 093°16'0 0.0
2016-Aug-19 18:34N 30°04' W 093°16'0 0.0
2016-Aug-19 17:33N 30°04' W 093°16'0 0.0
2016-Aug-19 16:33N 30°04' W 093°16'0 0.0
2016-Aug-19 15:33N 30°04' W 093°16'3 2.6
2016-Aug-19 14:33N 30°06' W 093°18'2 1.6
2016-Aug-19 13:33N 30°05' W 093°17'1 1.0
2016-Aug-19 12:33N 30°04' W 093°16'0 0.0
2016-Aug-19 11:33N 30°04' W 093°16'0 0.0
2016-Aug-19 10:33N 30°04' W 093°16'0 0.0
2016-Aug-19 09:33N 30°04' W 093°16'0 0.0
2016-Aug-19 08:33N 30°04' W 093°16'0 0.0
2016-Aug-19 07:33N 30°04' W 093°16'0 0.0
2016-Aug-19 06:33N 30°04' W 093°16'0 0.0
2016-Aug-19 05:33N 30°04' W 093°16'0 0.0
2016-Aug-19 04:33N 30°04' W 093°16'0 0.0
2016-Aug-19 03:33N 30°04' W 093°16'0 0.0
2016-Aug-19 02:33N 30°04' W 093°16'0 0.0
2016-Aug-19 01:33N 30°04' W 093°16'0 0.0
2016-Aug-19 00:33N 30°04' W 093°16'0 0.0
2016-Aug-18 23:33N 30°04' W 093°16'0 0.1
2016-Aug-18 22:34N 30°04' W 093°16'3 3.4
2016-Aug-18 21:33N 30°02' W 093°14'4 3.6
2016-Aug-18 20:27N 29°58' W 093°12'3 3.7
2016-Aug-18 19:33N 29°56' W 093°09'5 4.6
2016-Aug-18 18:33N 29°56' W 093°03'5 4.1
2016-Aug-18 17:23N 29°56' W 092°58'31 3.5
2016-Aug-18 08:31N 29°52' W 092°22'2 2.4
2016-Aug-18 07:34N 29°51' W 092°20'3 2.6
2016-Aug-18 06:33N 29°50' W 092°18'3 2.6
2016-Aug-18 05:34N 29°48' W 092°15'3 2.5
2016-Aug-18 04:33N 29°47' W 092°12'2 1.7
2016-Aug-18 03:33N 29°47' W 092°11'3 3.1
2016-Aug-18 02:33N 29°47' W 092°07'  
2016-Aug-11 05:33N 29°56' W 091°50'  

Dump ship's entire track history